z

Olsztyn

Wyniki

Bieg 5

13.02.2016 Dystans: 5 km Rodzaj: Bieg główny
Pobierz wyniki:
Miejsce Nr Nazwisko Imię Miasto Klub Rocznik Kategoria Czas netto Czas brutto
1 11 JACKIEWICZ MONIKA Szczecin CITY TRAIL TEAM 1992 K20 00:18:56 00:18:56
2 460 TRZECIAK MAGDALENA Olsztyn AZS UWM OLSZTYN/GRUPA DBK 1995 K20 00:19:12 00:19:14
3 12 BARCEWICZ MARTA Olsztyn 12TRI.PL DRUŻYNA WILKA 1986 K20 00:19:50 00:19:51
4 493 GAWROŃSKA BEATA Olsztyn AKM OLIMP OLSZTYN/SKLEPBIEGOWY.COM 1973 K40 00:21:33 00:21:38
5 113 LIPNICKA KATARZYNA Ostróda 1982 K30 00:22:34 00:22:39
6 314 GODLEWSKA IWONA Olsztyn GASSS ŁOMEN 1974 K40 00:22:45 00:22:52
7 82 PIECZULIS KRYSTYNA Olsztyn AZS UWM OLSZTYN/AKM OLIMP/SKLEP BIEGOWY 1962 K50 00:22:46 00:22:48
8 98 ZIELIŃSKA MAGDALENA olsztyn TEAM KOPEĆ 1982 K30 00:22:54 00:22:56
9 365 ANDRUSZKIEWICZ-ĆWIK NATALIA Olsztyn 12TRI.PL DRUŻYNA WILKA 1985 K30 00:23:04 00:23:09
10 119 WASIAK MIŁOSŁAWA Działdowo PSZCZÓŁKOWSKI TEAM 1991 K20 00:23:05 00:23:11
11 88 KĘDZIA MILENA Olsztyn 1997 K16 00:23:32 00:23:41
12 377 BRONAKOWSKA DOROTA Olsztyn 1982 K30 00:23:38 00:23:45
13 464 BOGUSZ JUSTYNA Mrągwo 12TRI.PL DRUŻYNA WILKA 1994 K20 00:23:54 00:24:04
14 78 GAWRYŚ KATARZYNA Olsztyn 1981 K30 00:24:24 00:24:40
15 59 SZYMAŃSKA EDYTA Olsztyn 12TRI.PL DRUŻYNA WILKA 1987 K20 00:24:25 00:24:39
16 231 DĄBKOWSKA-WILCZEK MARTA Olsztyn 12TRI.PL DRUŻYNA WILKA 1983 K30 00:24:27 00:24:49
17 445 MILCZAREK DANUTA OLSZTYN KOCHAM SWOJEGO MĘŻA 1973 K40 00:24:34 00:24:44
18 143 OLEJNIK BARBARA olsztyn 1980 K30 00:24:43 00:24:54
19 448 BOLDA PATRYCJA Olsztyn FIZJOTERAPIA MATEUSZ DERLECKI 1993 K20 00:25:04 00:25:19
20 681 MARCHEWKA DARIA KUTNO 1988 K20 00:25:15 00:25:28
21 56 KULESZA MAŁGORZATA Olsztyn 4FUNEVENTS.PL 1965 K50 00:25:18 00:25:25
22 366 KOŚCIESZA PATRYCJA Olsztyn TRI NEGU 1994 K20 00:25:34 00:25:48
23 431 BARNECKA PAULINA Olsztyn 1992 K20 00:25:37 00:25:49
24 350 GAJEWSKA MARCELINA Olsztyn GAJÓWKA 1999 K16 00:25:45 00:25:52
25 357 ROPIAK WIOLETTA olsztyn NUTRIPOL 1975 K40 00:25:51 00:26:01
26 300 PŁUCIENNICZAK DIANA Olsztyn PSZCZÓŁKOWSKI TEAM 1986 K20 00:26:08 00:26:19
27 131 ODOLIŃSKA AGNIESZKA Ostróda BRZOZOWSKI TEAM 1972 K40 00:26:08 00:26:20
28 616 WORONIEC ALICJA Lidzbark Warmiński TEAM KOPEĆ 1981 K30 00:26:39 00:26:53
29 322 ANDRUSZKIEWICZ ANNA Olsztyn BBLOLSZTYN 1957 K50 00:26:49 00:27:05
30 237 GRABIEC JOANNA Miłomłyn BRZOZOWSKI TEAM 1996 K16 00:26:51 00:27:11
31 36 ŻBIK ADA Olsztyn 1994 K20 00:27:02 00:27:20
32 660 KAMROWSKA MARTA Olsztyn 1986 K20 00:27:04 00:27:21
33 225 MOROZ KATARZYNA Olsztyn 1978 K30 00:27:07 00:27:21
34 276 ANTCZAK EDYTA Ostróda OSTRÓDZKA GRUPA BIEGOWA 1981 K30 00:27:07 00:27:21
35 76 SZWAJOREK EWELINA Olsztyn PSZCZÓŁKOWSKI TEAM 1987 K20 00:27:08 00:27:20
36 167 BOBER WIOLETTA Olsztyn SĄD OKRĘGOWY W OLSZTYNIE 1970 K40 00:27:12 00:27:30
37 389 PODLEWSKA ANNA OLSZTYN FITNESS CLUB SYLWETKA 1980 K30 00:27:12 00:27:23
38 562 BOCHNIAK KATARZYNA Olsztyn PSZCZÓŁKOWSKI TEAM 1986 K20 00:27:17 00:27:29
39 179 SŁOWIKOWSKA MAGDALENA Olsztyn SĄD OKRĘGOWY W OLSZTYNIE 1975 K40 00:27:19 00:27:35
40 319 TARNOWSKA ANNA Olsztyn PSZCZÓŁKOWSKI TEAM 1990 K20 00:27:21 00:27:34
41 106 ŻUCHNIEWICZ WIKTORIA Olsztyn LEŚNI BIEGACZE 1998 K16 00:27:21 00:27:40
42 178 PAŃKOWSKA MARTYNA Olsztyn SĄD OKRĘGOWY W OLSZTYNIE 1987 K20 00:27:23 00:27:39
43 655 JUSZCZYK ŻANETA Olsztyn 1988 K20 00:27:31 00:27:48
44 581 OPRZYŃSKA AGNIESZKA Olsztyn 1981 K30 00:27:31 00:27:51
45 482 KUCZYŃSKA KINGA Mrągowo 1985 K30 00:27:33 00:27:47
46 279 KUTNICKA EMILIA Olsztyn 1967 K40 00:27:40 00:27:55
47 680 KUMOROWSKA KATARZYNA TRĘKUSEK 1981 K30 00:27:51 00:28:14
48 575 KAROLEWSKA ANNA Olsztyn 1985 K30 00:27:55 00:28:07
49 380 JANAS KAROLINA Bełchatów 1987 K20 00:27:58 00:28:19
50 127 KRAUSHAR MONIKA Giedajty DOMON 1974 K40 00:27:59 00:28:15
51 135 ROGOZIŃSKA MONIKA Olsztyn GRUPA DBK 1986 K20 00:28:07 00:28:22
52 508 SZYNDRALEWICZ GABRIELA OLSZTYN GRUPA DBK OLSZTYN 1969 K40 00:28:09 00:28:31
53 313 FOTSCHKI JOLANTA Olsztyn 1963 K50 00:28:10 00:28:33
54 128 POTOCKA MAŁGORZATA Olsztyn AKM OLIMP OLSZTYN/ SKLEPBIEGOWY.COM 1974 K40 00:28:12 00:28:27
55 443 GRĄDZKA IZABELA Barczewo BARCZEWO BIEGA 1981 K30 00:28:17 00:28:32
56 571 JANKOWSKA PAULINA Olsztyn TEAM BEZ NAZWY/KW OLSZTYN 1985 K30 00:28:24 00:28:48
57 481 DOMAŃSKA EWA Olsztyn 1984 K30 00:28:41 00:29:05
58 541 FOKS MAŁGORZATA Jonkowo 1987 K20 00:29:03 00:29:31
59 474 ROSIŃSKA KAROLINA Olsztyn 1992 K20 00:29:04 00:29:24
60 94 PANKOWSKA KATARZYNA Iława ORKAMASTERS IŁAWA 1983 K30 00:29:05 00:29:23
61 212 SIEŃKO MAŁGORZATA Olsztyn TEAM BEZ NAZWY/KW OLSZTYN 1978 K30 00:29:08 00:29:32
62 333 TURALSKA MAŁGORZATA Olsztyn NUTRIPOL 1965 K50 00:29:08 00:29:26
63 330 ZIELIŃSKA KASIA Olsztyn 1988 K20 00:29:13 00:29:38
64 114 KOSAKOWSKA-SZUTKOWSKA BARBARA Olsztyn AKM OLIMP OLSZTYN/SKLEPBIEGOWY.COM 1955 K60 00:29:20 00:29:45
65 594 DEMBIŃSKA ANNA Marki 1991 K20 00:29:26 00:29:46
66 511 DZIDO EDYTA Nidzica NIDZICA BIEGA 1971 K40 00:29:32 00:29:44
67 265 GĄSIOREK JOANNA Jonkowo 1989 K20 00:29:33 00:29:54
68 527 MAŃKOWSKA-SALIK IZABELA Olsztyn 1978 K30 00:29:33 00:29:48
69 302 GAJEWSKA BARBARA Olsztyn GAJÓWKA 1964 K50 00:29:39 00:29:59
70 522 LACHOWICZ EMILIA Olsztyn VEGE RUNNERS 1982 K30 00:29:41 00:29:56
71 436 KOMOROWSKA EWA Olsztyn RC KOMOROWSCY 1974 K40 00:29:43 00:30:04
72 10 NIEWDZIĘCZNA BARBARA Olsztyn PSZCZÓŁKOWSKI TEAM 1976 K30 00:29:43 00:30:07
73 60 HOLOVIN HANNA Barczewko 1971 K40 00:29:50 00:30:10
74 41 PIĘDZIA IZABELA Olsztyn LEŚNI BIEGACZE 1974 K40 00:29:51 00:30:11
75 177 OPAK BEATA Olsztyn SĄD OKRĘGOWY W OLSZTYNIE 1965 K50 00:30:12 00:30:30
76 68 DADASIEWICZ MARZENA Olsztyn 1979 K30 00:30:24 00:30:42
77 248 KRAWIEC AGNIESZKA Olsztyn SĄD OKRĘGOWY W OLSZTYNIE 1977 K30 00:30:41 00:31:08
78 516 HINZMANN ANNA Stawiguda 1992 K20 00:30:57 00:31:19
79 410 BARTNIKOWSKA OLGA Olsztyn KINETIC TEAM 1977 K30 00:31:26 00:31:52
80 427 PODRAŻKA KAMILA Olsztyn 1986 K20 00:31:34 00:31:55
81 518 GRZEGORZEWSKA KATARZYNA Gietrzwałd SSPS AZS OLSZTYN 1986 K20 00:31:37 00:31:59
82 672 TETMER DARIA ROŻENTAL 1997 K16 00:31:40 00:31:52
83 669 BIELECKA ANNA OLSZTYN 1964 K50 00:31:58 00:32:24
84 175 KERBER IZABELA Barczewo SĄD OKRĘGOWY W OLSZTYNIE 1971 K40 00:31:59 00:32:18
85 392 POTERAŁA-PASZKO KATARZYNA Olsztyn FITNESS CLUB SYLWETKA 1983 K30 00:32:37 00:32:48
86 686 LIMONTAS DOROTA Olsztyn 1987 K20 00:32:48 00:33:10
87 30 RATUSZYŃSKA KASIA Olsztyn 1975 K40 00:32:54 00:33:17
88 115 PANKOWSKA JUSTYNA Olsztyn 1973 K40 00:33:48 00:34:07
89 269 KAMIANKA MAŁGORZATA Olsztyn PSZCZÓŁKOWSKI TEAM 1973 K40 00:34:34 00:35:00
90 684 LEWANDOWSKA BEATA Barczewo BARCZEWO BIEGA 1978 K30 00:34:41 00:35:09
91 185 BLOCK BEATA Jonkowo SĄD OKRĘGOWY W OLSZTYNIE 1975 K40 00:36:54 00:37:22
92 137 BRZÓSKA MAŁGORZATA Jonkowo LEŚNI BIEGACZE 1971 K40 00:37:13 00:37:40
93 677 ZELTZER KATARZYNA OLSZTYN 1977 K30 00:38:21 00:38:50
94 194 KOWALCZYK DARIA Olsztyn 1997 K16 00:38:29 00:38:50
95 58 KOWALSKA BIBI Prabuty 1992 K20 00:39:22 00:39:50
96 667 KOWALCZYK BOŻENA Olsztyn 1961 K50 00:39:26 00:39:50
97 244 BRZÓSKA KATARZYNA Olsztyn LEŚNI BIEGACZE 1970 K40 00:47:11 00:47:11
98 409 HUSZLA IWONA OLSZTYN 1968 K40 00:49:46 00:50:15

Sponsor tytularny

Partnerzy generalni